sensor_id;sensor_type;location;lat;lon;timestamp;P1;P2;P0
82821;PMS5003;72574;46.842;-71.246;2024-01-25T00:01:22;68.9;54.57;34.24
82821;PMS5003;72574;46.842;-71.246;2024-01-25T00:03:45;71.24;56.57;35.71
82821;PMS5003;72574;46.842;-71.246;2024-01-25T00:06:11;71;54.32;34.26
82821;PMS5003;72574;46.842;-71.246;2024-01-25T00:08:37;71.3;54.25;33
82821;PMS5003;72574;46.842;-71.246;2024-01-25T00:11:02;69.05;55.67;37.29
82821;PMS5003;72574;46.842;-71.246;2024-01-25T00:13:29;65.9;52.81;32.81
82821;PMS5003;72574;46.842;-71.246;2024-01-25T00:15:52;49.24;44.43;28.95
82821;PMS5003;72574;46.842;-71.246;2024-01-25T00:18:20;57.9;45.15;29.45
82821;PMS5003;72574;46.842;-71.246;2024-01-25T00:20:46;67;50;33.05
82821;PMS5003;72574;46.842;-71.246;2024-01-25T00:23:09;65.35;49.25;33.4
82821;PMS5003;72574;46.842;-71.246;2024-01-25T00:25:35;68.24;49;33.14
82821;PMS5003;72574;46.842;-71.246;2024-01-25T00:28:01;69.9;52.2;34.6
82821;PMS5003;72574;46.842;-71.246;2024-01-25T00:30:27;79.1;62.45;44.35
82821;PMS5003;72574;46.842;-71.246;2024-01-25T00:32:50;80.55;63.1;47.65
82821;PMS5003;72574;46.842;-71.246;2024-01-25T00:35:19;69.16;52.95;37.21
82821;PMS5003;72574;46.842;-71.246;2024-01-25T00:37:43;63.75;46.05;31.45
82821;PMS5003;72574;46.842;-71.246;2024-01-25T00:40:10;62.35;46.5;28.6
82821;PMS5003;72574;46.842;-71.246;2024-01-25T00:42:34;54.8;45.45;30.55
82821;PMS5003;72574;46.842;-71.246;2024-01-25T00:45:00;64.4;45.4;28.3
82821;PMS5003;72574;46.842;-71.246;2024-01-25T00:47:24;63.63;45.95;29.26
82821;PMS5003;72574;46.842;-71.246;2024-01-25T00:49:50;66.45;51.15;35.05
82821;PMS5003;72574;46.842;-71.246;2024-01-25T00:52:15;71.7;52.1;34.6
82821;PMS5003;72574;46.842;-71.246;2024-01-25T00:54:42;67.74;47.05;29.63
82821;PMS5003;72574;46.842;-71.246;2024-01-25T00:57:07;66.16;44.37;30.47
82821;PMS5003;72574;46.842;-71.246;2024-01-25T00:59:31;62.89;47.47;30.89
82821;PMS5003;72574;46.842;-71.246;2024-01-25T01:01:59;65.7;47.95;30.15
82821;PMS5003;72574;46.842;-71.246;2024-01-25T01:04:24;64.89;48.89;31.22
82821;PMS5003;72574;46.842;-71.246;2024-01-25T01:06:48;70.61;50.61;31.56
82821;PMS5003;72574;46.842;-71.246;2024-01-25T01:09:16;65.84;47.32;31.32
82821;PMS5003;72574;46.842;-71.246;2024-01-25T01:11:41;82.11;66.37;48.74
82821;PMS5003;72574;46.842;-71.246;2024-01-25T01:14:04;60.4;46.5;30.35
82821;PMS5003;72574;46.842;-71.246;2024-01-25T01:16:31;92.1;67.4;42.05
82821;PMS5003;72574;46.842;-71.246;2024-01-25T01:18:55;76.15;57.45;34.45
82821;PMS5003;72574;46.842;-71.246;2024-01-25T01:21:21;77.65;58.65;35.75
82821;PMS5003;72574;46.842;-71.246;2024-01-25T01:23:53;70.58;53.53;30.84
82821;PMS5003;72574;46.842;-71.246;2024-01-25T01:26:19;48.95;42.33;26.38
82821;PMS5003;72574;46.842;-71.246;2024-01-25T01:28:42;63.84;48.05;29.89
82821;PMS5003;72574;46.842;-71.246;2024-01-25T01:31:08;49.95;41.3;27.45
82821;PMS5003;72574;46.842;-71.246;2024-01-25T01:33:34;54.6;45.15;29.2
82821;PMS5003;72574;46.842;-71.246;2024-01-25T01:36:00;67.75;44.5;28.1
82821;PMS5003;72574;46.842;-71.246;2024-01-25T01:38:25;61.11;46;29.68
82821;PMS5003;72574;46.842;-71.246;2024-01-25T01:41:04;59.37;47.63;30.21
82821;PMS5003;72574;46.842;-71.246;2024-01-25T01:43:32;49.9;44.1;28.38
82821;PMS5003;72574;46.842;-71.246;2024-01-25T01:46:01;63.5;50;31.65
82821;PMS5003;72574;46.842;-71.246;2024-01-25T01:48:21;72.7;55.35;35.85
82821;PMS5003;72574;46.842;-71.246;2024-01-25T01:50:47;65.6;45.75;29.5
82821;PMS5003;72574;46.842;-71.246;2024-01-25T01:53:13;61.25;46.3;29.45
82821;PMS5003;72574;46.842;-71.246;2024-01-25T01:55:39;62;45.45;31.3
82821;PMS5003;72574;46.842;-71.246;2024-01-25T01:58:05;65.74;50.37;30.68
82821;PMS5003;72574;46.842;-71.246;2024-01-25T02:00:30;66.74;46;29.21
82821;PMS5003;72574;46.842;-71.246;2024-01-25T02:02:56;61.42;43.58;28.74
82821;PMS5003;72574;46.842;-71.246;2024-01-25T02:05:20;68.15;48.15;30.8
82821;PMS5003;72574;46.842;-71.246;2024-01-25T02:07:46;63.5;47.9;30.55
82821;PMS5003;72574;46.842;-71.246;2024-01-25T02:10:11;55.48;45;31.05
82821;PMS5003;72574;46.842;-71.246;2024-01-25T02:12:37;62.95;46.8;28.9
82821;PMS5003;72574;46.842;-71.246;2024-01-25T02:15:03;72.71;58.33;37.33
82821;PMS5003;72574;46.842;-71.246;2024-01-25T02:17:27;74;51.75;32.3
82821;PMS5003;72574;46.842;-71.246;2024-01-25T02:19:52;73.84;54.47;35.32
82821;PMS5003;72574;46.842;-71.246;2024-01-25T02:22:19;72.15;55.15;35.15
82821;PMS5003;72574;46.842;-71.246;2024-01-25T02:24:45;73;54.7;35
82821;PMS5003;72574;46.842;-71.246;2024-01-25T02:27:11;70.84;54.84;33.21
82821;PMS5003;72574;46.842;-71.246;2024-01-25T02:29:34;79.05;55.5;36.25
82821;PMS5003;72574;46.842;-71.246;2024-01-25T02:32:03;76.29;55.24;33.33
82821;PMS5003;72574;46.842;-71.246;2024-01-25T02:34:26;78.37;55.42;35.47
82821;PMS5003;72574;46.842;-71.246;2024-01-25T02:36:52;74.9;56;36.35
82821;PMS5003;72574;46.842;-71.246;2024-01-25T02:39:19;72.05;54.55;32.9
82821;PMS5003;72574;46.842;-71.246;2024-01-25T02:41:42;74.5;53.7;33
82821;PMS5003;72574;46.842;-71.246;2024-01-25T02:44:07;78.45;57.45;34.65
82821;PMS5003;72574;46.842;-71.246;2024-01-25T02:46:33;71.6;55.9;34.9
82821;PMS5003;72574;46.842;-71.246;2024-01-25T02:49:01;83.38;59.62;37.43
82821;PMS5003;72574;46.842;-71.246;2024-01-25T02:51:24;90.25;64.2;39.2
82821;PMS5003;72574;46.842;-71.246;2024-01-25T02:53:50;82.4;63.75;39.5
82821;PMS5003;72574;46.842;-71.246;2024-01-25T02:56:15;85;62.3;39.3
82821;PMS5003;72574;46.842;-71.246;2024-01-25T02:58:41;86.05;63.1;38.15
82821;PMS5003;72574;46.842;-71.246;2024-01-25T03:01:07;90.56;65.33;41.83
82821;PMS5003;72574;46.842;-71.246;2024-01-25T03:03:32;86.74;61.21;38.32
82821;PMS5003;72574;46.842;-71.246;2024-01-25T03:05:58;81.9;61.9;38.3
82821;PMS5003;72574;46.842;-71.246;2024-01-25T03:08:24;88.2;62.35;38.9
82821;PMS5003;72574;46.842;-71.246;2024-01-25T03:10:49;89.65;66.05;40.3
82821;PMS5003;72574;46.842;-71.246;2024-01-25T03:13:15;82.06;64.39;39.06
82821;PMS5003;72574;46.842;-71.246;2024-01-25T03:15:38;78.17;58.22;36.17
82821;PMS5003;72574;46.842;-71.246;2024-01-25T03:18:04;71.74;53.58;33.26
82821;PMS5003;72574;46.842;-71.246;2024-01-25T03:20:30;71.53;53.95;34.05
82821;PMS5003;72574;46.842;-71.246;2024-01-25T03:22:56;88.5;61.5;39.15
82821;PMS5003;72574;46.842;-71.246;2024-01-25T03:25:23;91.74;64.79;40.47
82821;PMS5003;72574;46.842;-71.246;2024-01-25T03:27:46;76.9;62.24;39.38
82821;PMS5003;72574;46.842;-71.246;2024-01-25T03:30:12;82.16;60.16;38.58
82821;PMS5003;72574;46.842;-71.246;2024-01-25T03:32:38;81.15;60.35;37.2
82821;PMS5003;72574;46.842;-71.246;2024-01-25T03:35:05;87.28;62.5;38.89
82821;PMS5003;72574;46.842;-71.246;2024-01-25T03:37:29;81.25;62.6;39.85
82821;PMS5003;72574;46.842;-71.246;2024-01-25T03:39:54;90.53;67.53;42.53
82821;PMS5003;72574;46.842;-71.246;2024-01-25T03:42:20;84.14;64.86;40.05
82821;PMS5003;72574;46.842;-71.246;2024-01-25T03:44:46;84.35;64.6;38.75
82821;PMS5003;72574;46.842;-71.246;2024-01-25T03:47:10;77.62;60.14;38.86
82821;PMS5003;72574;46.842;-71.246;2024-01-25T03:49:36;79.15;61.65;39.8
82821;PMS5003;72574;46.842;-71.246;2024-01-25T03:52:02;81.45;60.65;39.5
82821;PMS5003;72574;46.842;-71.246;2024-01-25T03:54:28;89.33;65.43;41.71
82821;PMS5003;72574;46.842;-71.246;2024-01-25T03:56:54;95.2;68.75;43.95
82821;PMS5003;72574;46.842;-71.246;2024-01-25T03:59:20;90.25;67.4;41.85
82821;PMS5003;72574;46.842;-71.246;2024-01-25T04:01:43;89.89;67.22;42.89
82821;PMS5003;72574;46.842;-71.246;2024-01-25T04:04:10;88.9;65.25;41.1
82821;PMS5003;72574;46.842;-71.246;2024-01-25T04:06:34;93.75;69.3;43.45
82821;PMS5003;72574;46.842;-71.246;2024-01-25T04:08:59;97.15;70.8;45.05
82821;PMS5003;72574;46.842;-71.246;2024-01-25T04:11:26;89.95;66.4;41.65
82821;PMS5003;72574;46.842;-71.246;2024-01-25T04:13:51;89.35;66.3;41.95
82821;PMS5003;72574;46.842;-71.246;2024-01-25T04:16:16;90.4;68.15;43.7
82821;PMS5003;72574;46.842;-71.246;2024-01-25T04:18:42;88.53;67.58;42.84
82821;PMS5003;72574;46.842;-71.246;2024-01-25T04:21:07;90.37;67.68;41.47
82821;PMS5003;72574;46.842;-71.246;2024-01-25T04:23:34;88.55;66.35;42.25
82821;PMS5003;72574;46.842;-71.246;2024-01-25T04:25:57;93.2;67.15;41.9
82821;PMS5003;72574;46.842;-71.246;2024-01-25T04:28:23;92.63;69.26;43.79
82821;PMS5003;72574;46.842;-71.246;2024-01-25T04:30:49;96.19;70.48;42.95
82821;PMS5003;72574;46.842;-71.246;2024-01-25T04:33:17;91.74;68.47;43.63
82821;PMS5003;72574;46.842;-71.246;2024-01-25T04:35:40;86.55;64.2;40.75
82821;PMS5003;72574;46.842;-71.246;2024-01-25T04:38:05;86.14;68.05;42.86
82821;PMS5003;72574;46.842;-71.246;2024-01-25T04:40:31;91.05;66.05;41.84
82821;PMS5003;72574;46.842;-71.246;2024-01-25T04:42:57;90.74;65.47;41.42
82821;PMS5003;72574;46.842;-71.246;2024-01-25T04:45:23;81.25;62.05;39.25
82821;PMS5003;72574;46.842;-71.246;2024-01-25T04:47:48;85.9;65.9;41.67
82821;PMS5003;72574;46.842;-71.246;2024-01-25T04:50:14;83.84;65.53;41.37
82821;PMS5003;72574;46.842;-71.246;2024-01-25T04:52:42;82.67;63.57;38.76
82821;PMS5003;72574;46.842;-71.246;2024-01-25T04:55:05;87.8;63.05;38.9
82821;PMS5003;72574;46.842;-71.246;2024-01-25T04:57:32;85.95;64.75;40.6
82821;PMS5003;72574;46.842;-71.246;2024-01-25T04:59:57;89.9;66.3;40.3
82821;PMS5003;72574;46.842;-71.246;2024-01-25T05:02:22;90.9;66.6;41.3
82821;PMS5003;72574;46.842;-71.246;2024-01-25T05:04:49;88.42;64.53;40.84
82821;PMS5003;72574;46.842;-71.246;2024-01-25T05:07:14;85;64.22;40.39
82821;PMS5003;72574;46.842;-71.246;2024-01-25T05:09:38;77.43;62.9;39.43
82821;PMS5003;72574;46.842;-71.246;2024-01-25T05:12:05;86.9;63.8;40.3
82821;PMS5003;72574;46.842;-71.246;2024-01-25T05:14:28;86.74;64.47;39.42
82821;PMS5003;72574;46.842;-71.246;2024-01-25T05:16:54;87.35;65.7;42.85
82821;PMS5003;72574;46.842;-71.246;2024-01-25T05:19:20;86.11;63.94;41.83
82821;PMS5003;72574;46.842;-71.246;2024-01-25T05:21:45;82.05;62.45;41.05
82821;PMS5003;72574;46.842;-71.246;2024-01-25T05:24:10;85.39;65.06;40.94
82821;PMS5003;72574;46.842;-71.246;2024-01-25T05:26:36;87.1;63.3;39.7
82821;PMS5003;72574;46.842;-71.246;2024-01-25T05:29:01;83.8;63.85;41.9
82821;PMS5003;72574;46.842;-71.246;2024-01-25T05:31:29;88.6;66.1;41.85
82821;PMS5003;72574;46.842;-71.246;2024-01-25T05:33:52;92.21;68.26;43.11
82821;PMS5003;72574;46.842;-71.246;2024-01-25T05:36:18;91;65.32;41.32
82821;PMS5003;72574;46.842;-71.246;2024-01-25T05:38:45;85.86;65.52;42.9
82821;PMS5003;72574;46.842;-71.246;2024-01-25T05:41:11;93.5;67.2;42.05
82821;PMS5003;72574;46.842;-71.246;2024-01-25T05:43:37;91.53;67.26;41.53
82821;PMS5003;72574;46.842;-71.246;2024-01-25T05:46:00;90.8;68.5;42.75
82821;PMS5003;72574;46.842;-71.246;2024-01-25T05:48:26;90.6;65.8;41.9
82821;PMS5003;72574;46.842;-71.246;2024-01-25T05:50:52;83.7;63.75;41.95
82821;PMS5003;72574;46.842;-71.246;2024-01-25T05:53:16;93.84;67.89;42.53
82821;PMS5003;72574;46.842;-71.246;2024-01-25T05:55:44;88.95;65.15;42.55
82821;PMS5003;72574;46.842;-71.246;2024-01-25T05:58:07;95.28;68.94;43.78
82821;PMS5003;72574;46.842;-71.246;2024-01-25T06:00:33;92.6;68.45;44.35
82821;PMS5003;72574;46.842;-71.246;2024-01-25T06:02:59;91.63;66;42.53
82821;PMS5003;72574;46.842;-71.246;2024-01-25T06:05:25;90;67.06;41.67
82821;PMS5003;72574;46.842;-71.246;2024-01-25T06:07:49;93.72;66.83;42.5
82821;PMS5003;72574;46.842;-71.246;2024-01-25T06:10:16;94.16;68.05;42.63
82821;PMS5003;72574;46.842;-71.246;2024-01-25T06:12:43;87.21;66.05;41.89
82821;PMS5003;72574;46.842;-71.246;2024-01-25T06:15:08;88.62;66.33;42.43
82821;PMS5003;72574;46.842;-71.246;2024-01-25T06:17:33;84.62;65.29;41.81
82821;PMS5003;72574;46.842;-71.246;2024-01-25T06:19:59;89.06;64.89;41.61
82821;PMS5003;72574;46.842;-71.246;2024-01-25T06:22:23;79.62;62.52;40.81
82821;PMS5003;72574;46.842;-71.246;2024-01-25T06:24:49;88.39;65.89;42.17
82821;PMS5003;72574;46.842;-71.246;2024-01-25T06:27:13;92.1;66.75;42.15
82821;PMS5003;72574;46.842;-71.246;2024-01-25T06:29:41;89.32;65.79;43
82821;PMS5003;72574;46.842;-71.246;2024-01-25T06:32:07;94.53;68.53;43.84
82821;PMS5003;72574;46.842;-71.246;2024-01-25T06:34:31;89.1;67.4;43.7
82821;PMS5003;72574;46.842;-71.246;2024-01-25T06:36:57;88.06;66.17;43.11
82821;PMS5003;72574;46.842;-71.246;2024-01-25T06:39:22;90.95;68.4;45.1
82821;PMS5003;72574;46.842;-71.246;2024-01-25T06:41:48;94.22;68.06;42.78
82821;PMS5003;72574;46.842;-71.246;2024-01-25T06:44:14;92.53;65.47;42.16
82821;PMS5003;72574;46.842;-71.246;2024-01-25T06:46:40;91.81;69.33;44.1
82821;PMS5003;72574;46.842;-71.246;2024-01-25T06:49:03;97.79;69.84;44.74
82821;PMS5003;72574;46.842;-71.246;2024-01-25T06:51:31;89.67;66.38;41.52
82821;PMS5003;72574;46.842;-71.246;2024-01-25T06:53:54;89.5;67.44;42.44
82821;PMS5003;72574;46.842;-71.246;2024-01-25T06:56:20;85.95;64.4;40.65
82821;PMS5003;72574;46.842;-71.246;2024-01-25T06:58:46;87.39;66.22;41.56
82821;PMS5003;72574;46.842;-71.246;2024-01-25T07:01:13;87.16;65.21;40.79
82821;PMS5003;72574;46.842;-71.246;2024-01-25T07:03:38;92.24;67.43;42.05
82821;PMS5003;72574;46.842;-71.246;2024-01-25T07:06:04;95.16;68.16;41.63
82821;PMS5003;72574;46.842;-71.246;2024-01-25T07:08:28;83.3;64.55;41.25
82821;PMS5003;72574;46.842;-71.246;2024-01-25T07:10:56;89.42;66.42;42.68
82821;PMS5003;72574;46.842;-71.246;2024-01-25T07:13:20;80.8;64.45;40.3
82821;PMS5003;72574;46.842;-71.246;2024-01-25T07:15:44;85.11;63.37;41.11
82821;PMS5003;72574;46.842;-71.246;2024-01-25T07:18:10;84.55;63;40.15
82821;PMS5003;72574;46.842;-71.246;2024-01-25T07:20:37;85.95;64.71;40.52
82821;PMS5003;72574;46.842;-71.246;2024-01-25T07:23:01;87.17;65.61;41.89
82821;PMS5003;72574;46.842;-71.246;2024-01-25T07:25:27;92.15;66.9;41.2
82821;PMS5003;72574;46.842;-71.246;2024-01-25T07:27:52;90.47;67;41.84
82821;PMS5003;72574;46.842;-71.246;2024-01-25T07:30:17;92.68;65.11;42.47
82821;PMS5003;72574;46.842;-71.246;2024-01-25T07:32:44;86.35;64.25;41.45
82821;PMS5003;72574;46.842;-71.246;2024-01-25T07:35:08;94.47;68;42.11
82821;PMS5003;72574;46.842;-71.246;2024-01-25T07:37:35;90.68;69.89;42.37
82821;PMS5003;72574;46.842;-71.246;2024-01-25T07:40:01;97.26;70.21;43.89
82821;PMS5003;72574;46.842;-71.246;2024-01-25T07:42:25;90.05;65.5;40.75
82821;PMS5003;72574;46.842;-71.246;2024-01-25T07:44:52;87.65;66.9;40.15
82821;PMS5003;72574;46.842;-71.246;2024-01-25T07:47:18;87.39;63.67;40.39
82821;PMS5003;72574;46.842;-71.246;2024-01-25T07:49:41;81.43;64.9;40.48
82821;PMS5003;72574;46.842;-71.246;2024-01-25T07:52:07;83.61;62.44;39.06
82821;PMS5003;72574;46.842;-71.246;2024-01-25T07:54:34;82.62;62.9;37.76
82821;PMS5003;72574;46.842;-71.246;2024-01-25T07:56:59;80.42;62.26;38.32
82821;PMS5003;72574;46.842;-71.246;2024-01-25T07:59:24;86.8;63.75;39.35
82821;PMS5003;72574;46.842;-71.246;2024-01-25T08:01:49;80.2;61.8;38.55
82821;PMS5003;72574;46.842;-71.246;2024-01-25T08:04:14;79.79;59;37.47
82821;PMS5003;72574;46.842;-71.246;2024-01-25T08:06:39;79.05;58.48;37
82821;PMS5003;72574;46.842;-71.246;2024-01-25T08:09:06;81.89;59.58;36.32
82821;PMS5003;72574;46.842;-71.246;2024-01-25T08:11:32;69.29;56.71;36.24
82821;PMS5003;72574;46.842;-71.246;2024-01-25T08:13:59;71.33;54.57;33.52
82821;PMS5003;72574;46.842;-71.246;2024-01-25T08:16:22;69;54.05;32.65
82821;PMS5003;72574;46.842;-71.246;2024-01-25T08:18:47;70;54;35.44
82821;PMS5003;72574;46.842;-71.246;2024-01-25T08:21:14;69.58;52.32;32.63
82821;PMS5003;72574;46.842;-71.246;2024-01-25T08:23:38;71;53.38;33
82821;PMS5003;72574;46.842;-71.246;2024-01-25T08:26:04;70.56;55.11;32.72
82821;PMS5003;72574;46.842;-71.246;2024-01-25T08:28:29;73.52;55.57;33.38
82821;PMS5003;72574;46.842;-71.246;2024-01-25T08:30:55;71.8;53.6;34.4
82821;PMS5003;72574;46.842;-71.246;2024-01-25T08:33:21;72.38;54.95;34.33
82821;PMS5003;72574;46.842;-71.246;2024-01-25T08:35:47;71.55;53.7;32.85
82821;PMS5003;72574;46.842;-71.246;2024-01-25T08:38:13;62.25;51.15;32.75
82821;PMS5003;72574;46.842;-71.246;2024-01-25T08:40:37;51.7;46.35;30.35
82821;PMS5003;72574;46.842;-71.246;2024-01-25T08:43:11;68.35;51.45;32.2
82821;PMS5003;72574;46.842;-71.246;2024-01-25T08:45:34;65.1;52.3;32.5
82821;PMS5003;72574;46.842;-71.246;2024-01-25T08:47:59;70.65;52.6;30.85
82821;PMS5003;72574;46.842;-71.246;2024-01-25T08:50:25;62.85;50.35;31.2
82821;PMS5003;72574;46.842;-71.246;2024-01-25T08:52:50;66;49.42;31.79
82821;PMS5003;72574;46.842;-71.246;2024-01-25T08:55:17;66.55;52.7;31.05
82821;PMS5003;72574;46.842;-71.246;2024-01-25T08:57:43;66.21;49.53;29.21
82821;PMS5003;72574;46.842;-71.246;2024-01-25T09:32:43;58.95;44.62;28.43
82821;PMS5003;72574;46.842;-71.246;2024-01-25T09:32:59;67.95;52.23;30.59
82821;PMS5003;72574;46.842;-71.246;2024-01-25T09:33:17;60.79;45.42;27.32
82821;PMS5003;72574;46.842;-71.246;2024-01-25T09:33:30;63.95;48;27.86
82821;PMS5003;72574;46.842;-71.246;2024-01-25T09:33:39;61.43;44.29;27.57
82821;PMS5003;72574;46.842;-71.246;2024-01-25T09:33:51;62.05;45.9;26.95
82821;PMS5003;72574;46.842;-71.246;2024-01-25T09:34:00;62.77;45.32;28.41
82821;PMS5003;72574;46.842;-71.246;2024-01-25T09:34:13;48.71;41.9;26.19
82821;PMS5003;72574;46.842;-71.246;2024-01-25T09:34:20;56.5;44.23;27.82
82821;PMS5003;72574;46.842;-71.246;2024-01-25T09:35:57;61;44.1;26.52
82821;PMS5003;72574;46.842;-71.246;2024-01-25T09:38:24;44.9;40.2;21.9
82821;PMS5003;72574;46.842;-71.246;2024-01-25T09:40:50;55.29;42.1;24.81
82821;PMS5003;72574;46.842;-71.246;2024-01-25T09:43:15;45.4;38;23.2
82821;PMS5003;72574;46.842;-71.246;2024-01-25T09:45:40;54.48;42.48;25.33
82821;PMS5003;72574;46.842;-71.246;2024-01-25T09:48:07;50.81;35.52;22.38
82821;PMS5003;72574;46.842;-71.246;2024-01-25T09:50:32;58.33;43.67;26.67
82821;PMS5003;72574;46.842;-71.246;2024-01-25T09:52:56;55.16;43.84;25.68
82821;PMS5003;72574;46.842;-71.246;2024-01-25T09:55:23;45.8;42.15;24.7
82821;PMS5003;72574;46.842;-71.246;2024-01-25T09:57:47;55.55;41.15;25.75
82821;PMS5003;72574;46.842;-71.246;2024-01-25T10:00:16;48.05;40.32;26.05
82821;PMS5003;72574;46.842;-71.246;2024-01-25T10:02:37;51.63;39.84;23.74
82821;PMS5003;72574;46.842;-71.246;2024-01-25T10:05:07;40.62;37.38;24.38
82821;PMS5003;72574;46.842;-71.246;2024-01-25T10:07:35;38.75;35.7;21.3
82821;PMS5003;72574;46.842;-71.246;2024-01-25T10:09:55;45.42;36.42;20.89
82821;PMS5003;72574;46.842;-71.246;2024-01-25T10:12:22;36.85;31.85;19.05
82821;PMS5003;72574;46.842;-71.246;2024-01-25T10:14:47;34.15;32.3;19.95
82821;PMS5003;72574;46.842;-71.246;2024-01-25T10:17:12;37.5;31.55;18
82821;PMS5003;72574;46.842;-71.246;2024-01-25T10:19:38;51.4;41.3;22.35
82821;PMS5003;72574;46.842;-71.246;2024-01-25T10:22:05;43.76;37.95;20.95
82821;PMS5003;72574;46.842;-71.246;2024-01-25T10:24:29;54.81;41.14;23.29
82821;PMS5003;72574;46.842;-71.246;2024-01-25T10:26:56;42.9;37.25;19.55
82821;PMS5003;72574;46.842;-71.246;2024-01-25T10:29:19;37.6;34.75;21.8
82821;PMS5003;72574;46.842;-71.246;2024-01-25T10:31:46;53.26;39.53;24.47
82821;PMS5003;72574;46.842;-71.246;2024-01-25T10:34:11;56.33;40.24;23.86
82821;PMS5003;72574;46.842;-71.246;2024-01-25T10:36:35;51.39;41.72;25.28
82821;PMS5003;72574;46.842;-71.246;2024-01-25T10:39:04;52.29;41.76;23.62
82821;PMS5003;72574;46.842;-71.246;2024-01-25T10:41:27;45.25;38.35;23.65
82821;PMS5003;72574;46.842;-71.246;2024-01-25T10:43:55;53;43.8;24.8
82821;PMS5003;72574;46.842;-71.246;2024-01-25T10:46:20;63.32;44;25.26
82821;PMS5003;72574;46.842;-71.246;2024-01-25T10:48:44;57.21;42.42;25.16
82821;PMS5003;72574;46.842;-71.246;2024-01-25T10:51:09;53.15;41;26.25
82821;PMS5003;72574;46.842;-71.246;2024-01-25T10:53:34;61.85;43.35;25.95
82821;PMS5003;72574;46.842;-71.246;2024-01-25T10:56:02;49.1;41.57;26.1
82821;PMS5003;72574;46.842;-71.246;2024-01-25T10:58:30;40.5;37.05;24.4
82821;PMS5003;72574;46.842;-71.246;2024-01-25T11:00:52;40.8;36.25;22.1
82821;PMS5003;72574;46.842;-71.246;2024-01-25T11:03:18;55.32;42.63;25.16
82821;PMS5003;72574;46.842;-71.246;2024-01-25T11:05:42;37.55;34.8;21.05
82821;PMS5003;72574;46.842;-71.246;2024-01-25T11:08:16;58;44.1;25.52
82821;PMS5003;72574;46.842;-71.246;2024-01-25T11:10:35;42.1;39.4;26
82821;PMS5003;72574;46.842;-71.246;2024-01-25T11:13:01;49.38;40.67;24.95
82821;PMS5003;72574;46.842;-71.246;2024-01-25T11:15:30;59.9;43.67;26.62
82821;PMS5003;72574;46.842;-71.246;2024-01-25T11:17:53;49.83;40.72;25.89
82821;PMS5003;72574;46.842;-71.246;2024-01-25T11:20:19;43.75;39.1;24.6
82821;PMS5003;72574;46.842;-71.246;2024-01-25T11:22:44;42.42;37.16;19.11
82821;PMS5003;72574;46.842;-71.246;2024-01-25T11:25:11;51.68;38.47;22.95
82821;PMS5003;72574;46.842;-71.246;2024-01-25T11:27:33;47.35;42.4;25.25
82821;PMS5003;72574;46.842;-71.246;2024-01-25T11:30:00;54.26;44.37;27.89
82821;PMS5003;72574;46.842;-71.246;2024-01-25T11:32:25;70.24;52.14;29.81
82821;PMS5003;72574;46.842;-71.246;2024-01-25T11:34:57;65.4;47.85;29.5
82821;PMS5003;72574;46.842;-71.246;2024-01-25T11:37:15;64.6;47.05;26.5
82821;PMS5003;72574;46.842;-71.246;2024-01-25T11:39:39;56;45.58;27.63
82821;PMS5003;72574;46.842;-71.246;2024-01-25T11:42:05;66;47.7;30.3
82821;PMS5003;72574;46.842;-71.246;2024-01-25T11:44:31;63.85;47.3;28.3
82821;PMS5003;72574;46.842;-71.246;2024-01-25T11:46:57;63.81;47.24;27.52
82821;PMS5003;72574;46.842;-71.246;2024-01-25T11:49:23;64.05;46.35;29.15
82821;PMS5003;72574;46.842;-71.246;2024-01-25T11:51:49;65.11;49.21;29.53
82821;PMS5003;72574;46.842;-71.246;2024-01-25T11:54:12;60.74;50.26;28.95
82821;PMS5003;72574;46.842;-71.246;2024-01-25T11:56:40;70.19;54;29.71
82821;PMS5003;72574;46.842;-71.246;2024-01-25T11:59:03;62.63;47.68;28.79
82821;PMS5003;72574;46.842;-71.246;2024-01-25T12:01:31;67.48;48.52;29.52
82821;PMS5003;72574;46.842;-71.246;2024-01-25T12:03:55;66.19;51.62;30.38
82821;PMS5003;72574;46.842;-71.246;2024-01-25T12:06:20;57.7;45.4;28.1
82821;PMS5003;72574;46.842;-71.246;2024-01-25T12:08:46;65.95;49.86;29.43
82821;PMS5003;72574;46.842;-71.246;2024-01-25T12:11:14;57.67;46.1;27.48
82821;PMS5003;72574;46.842;-71.246;2024-01-25T12:13:39;58.9;49.65;29
82821;PMS5003;72574;46.842;-71.246;2024-01-25T12:16:03;65.8;48;29.6
82821;PMS5003;72574;46.842;-71.246;2024-01-25T12:18:30;67.2;49.4;28.6
82821;PMS5003;72574;46.842;-71.246;2024-01-25T12:20:57;63.35;46.95;29.1
82821;PMS5003;72574;46.842;-71.246;2024-01-25T12:23:21;66.35;48;29
82821;PMS5003;72574;46.842;-71.246;2024-01-25T12:25:46;57.35;43.15;27.2
82821;PMS5003;72574;46.842;-71.246;2024-01-25T12:28:11;49.55;42.65;26.15
82821;PMS5003;72574;46.842;-71.246;2024-01-25T12:30:35;55.33;43.5;26.28
82821;PMS5003;72574;46.842;-71.246;2024-01-25T12:33:02;51.42;40.95;24.84
82821;PMS5003;72574;46.842;-71.246;2024-01-25T12:35:26;43.5;39.6;25.6
82821;PMS5003;72574;46.842;-71.246;2024-01-25T12:37:53;42.45;39.35;24
82821;PMS5003;72574;46.842;-71.246;2024-01-25T12:40:18;47.85;38.8;21.35
82821;PMS5003;72574;46.842;-71.246;2024-01-25T12:42:45;39.65;31.45;19.9
82821;PMS5003;72574;46.842;-71.246;2024-01-25T12:45:11;32.95;30.3;19
82821;PMS5003;72574;46.842;-71.246;2024-01-25T12:47:34;35.05;31.1;18.05
82821;PMS5003;72574;46.842;-71.246;2024-01-25T12:50:02;31;29.05;16.9
82821;PMS5003;72574;46.842;-71.246;2024-01-25T12:52:25;31.35;29.05;17.7
82821;PMS5003;72574;46.842;-71.246;2024-01-25T12:54:52;40.81;31.81;16.9
82821;PMS5003;72574;46.842;-71.246;2024-01-25T12:57:19;31.52;31;18.71
82821;PMS5003;72574;46.842;-71.246;2024-01-25T12:59:42;34.05;31.38;18.14
82821;PMS5003;72574;46.842;-71.246;2024-01-25T13:02:09;28.14;24.38;14.95
82821;PMS5003;72574;46.842;-71.246;2024-01-25T13:04:35;26.67;26.1;15.52
82821;PMS5003;72574;46.842;-71.246;2024-01-25T13:06:58;31.7;25.7;15
82821;PMS5003;72574;46.842;-71.246;2024-01-25T13:09:24;42.38;32.62;16.24
82821;PMS5003;72574;46.842;-71.246;2024-01-25T13:11:50;25.5;25.32;17.14
82821;PMS5003;72574;46.842;-71.246;2024-01-25T13:14:17;26.9;24.86;14.33
82821;PMS5003;72574;46.842;-71.246;2024-01-25T13:16:41;24.86;22.29;15.33
82821;PMS5003;72574;46.842;-71.246;2024-01-25T13:19:08;29.5;21.85;13.8
82821;PMS5003;72574;46.842;-71.246;2024-01-25T13:21:34;36.8;26.8;14.5
82821;PMS5003;72574;46.842;-71.246;2024-01-25T13:23:56;25.76;23.19;14.76
82821;PMS5003;72574;46.842;-71.246;2024-01-25T13:26:22;27.95;25.81;15.19
82821;PMS5003;72574;46.842;-71.246;2024-01-25T13:28:50;22.1;21.1;12.19
82821;PMS5003;72574;46.842;-71.246;2024-01-25T13:31:16;29.35;22.45;11.9
82821;PMS5003;72574;46.842;-71.246;2024-01-25T13:33:39;21;20.76;13.81
82821;PMS5003;72574;46.842;-71.246;2024-01-25T13:36:05;22.52;22.52;12.81
82821;PMS5003;72574;46.842;-71.246;2024-01-25T13:38:30;27.6;23.65;14.65
82821;PMS5003;72574;46.842;-71.246;2024-01-25T13:40:57;31.62;21.86;10.43